sensor_id;sensor_type;location;lat;lon;timestamp;temperature;humidity
6988;DHT22;3534;49.960;8.018;2022-10-13T00:01:48;12.20;99.90
6988;DHT22;3534;49.960;8.018;2022-10-13T00:04:14;12.10;99.90
6988;DHT22;3534;49.960;8.018;2022-10-13T00:06:41;12.10;99.90
6988;DHT22;3534;49.960;8.018;2022-10-13T00:09:08;12.10;99.90
6988;DHT22;3534;49.960;8.018;2022-10-13T00:11:36;12.10;99.90
6988;DHT22;3534;49.960;8.018;2022-10-13T00:14:03;12.00;99.90
6988;DHT22;3534;49.960;8.018;2022-10-13T00:16:31;11.90;99.90
6988;DHT22;3534;49.960;8.018;2022-10-13T00:18:58;11.90;99.90
6988;DHT22;3534;49.960;8.018;2022-10-13T00:21:26;11.90;99.90
6988;DHT22;3534;49.960;8.018;2022-10-13T00:23:53;11.90;99.90
6988;DHT22;3534;49.960;8.018;2022-10-13T00:26:22;11.80;99.90
6988;DHT22;3534;49.960;8.018;2022-10-13T00:28:50;11.80;99.90
6988;DHT22;3534;49.960;8.018;2022-10-13T00:31:18;11.80;99.90
6988;DHT22;3534;49.960;8.018;2022-10-13T00:33:45;11.80;99.90
6988;DHT22;3534;49.960;8.018;2022-10-13T00:36:14;11.90;99.90
6988;DHT22;3534;49.960;8.018;2022-10-13T00:38:40;11.90;99.90
6988;DHT22;3534;49.960;8.018;2022-10-13T00:41:08;11.90;99.90
6988;DHT22;3534;49.960;8.018;2022-10-13T00:43:52;11.90;99.90
6988;DHT22;3534;49.960;8.018;2022-10-13T00:46:19;11.90;99.90
6988;DHT22;3534;49.960;8.018;2022-10-13T00:48:46;11.90;99.90
6988;DHT22;3534;49.960;8.018;2022-10-13T00:51:18;11.80;99.90
6988;DHT22;3534;49.960;8.018;2022-10-13T00:53:46;11.80;99.90
6988;DHT22;3534;49.960;8.018;2022-10-13T00:56:16;11.70;99.90
6988;DHT22;3534;49.960;8.018;2022-10-13T00:58:44;11.70;99.90
6988;DHT22;3534;49.960;8.018;2022-10-13T01:01:14;11.70;99.90
6988;DHT22;3534;49.960;8.018;2022-10-13T01:03:41;11.70;99.90
6988;DHT22;3534;49.960;8.018;2022-10-13T01:06:08;11.80;99.90
6988;DHT22;3534;49.960;8.018;2022-10-13T01:08:35;11.80;99.90
6988;DHT22;3534;49.960;8.018;2022-10-13T01:11:15;11.60;99.90
6988;DHT22;3534;49.960;8.018;2022-10-13T01:13:49;11.50;99.90
6988;DHT22;3534;49.960;8.018;2022-10-13T01:16:24;11.50;99.90
6988;DHT22;3534;49.960;8.018;2022-10-13T01:18:57;11.50;99.90
6988;DHT22;3534;49.960;8.018;2022-10-13T01:21:31;11.60;99.90
6988;DHT22;3534;49.960;8.018;2022-10-13T01:24:27;11.60;99.90
6988;DHT22;3534;49.960;8.018;2022-10-13T01:27:09;11.60;99.90
6988;DHT22;3534;49.960;8.018;2022-10-13T01:29:52;11.70;99.90
6988;DHT22;3534;49.960;8.018;2022-10-13T01:32:28;11.70;99.90
6988;DHT22;3534;49.960;8.018;2022-10-13T01:35:01;11.70;99.90
6988;DHT22;3534;49.960;8.018;2022-10-13T01:37:36;11.60;99.90
6988;DHT22;3534;49.960;8.018;2022-10-13T01:40:08;11.60;99.90
6988;DHT22;3534;49.960;8.018;2022-10-13T01:42:41;11.60;99.90
6988;DHT22;3534;49.960;8.018;2022-10-13T01:45:13;11.50;99.90
6988;DHT22;3534;49.960;8.018;2022-10-13T01:47:42;11.30;99.90
6988;DHT22;3534;49.960;8.018;2022-10-13T01:50:10;11.30;99.90
6988;DHT22;3534;49.960;8.018;2022-10-13T01:52:38;11.30;99.90
6988;DHT22;3534;49.960;8.018;2022-10-13T01:55:06;11.40;99.90
6988;DHT22;3534;49.960;8.018;2022-10-13T01:57:36;11.40;99.90
6988;DHT22;3534;49.960;8.018;2022-10-13T02:00:05;11.40;99.90
6988;DHT22;3534;49.960;8.018;2022-10-13T02:02:38;11.40;99.90
6988;DHT22;3534;49.960;8.018;2022-10-13T02:05:13;11.40;99.90
6988;DHT22;3534;49.960;8.018;2022-10-13T02:07:46;11.40;99.90
6988;DHT22;3534;49.960;8.018;2022-10-13T02:10:18;11.50;99.90
6988;DHT22;3534;49.960;8.018;2022-10-13T02:12:49;11.50;99.90
6988;DHT22;3534;49.960;8.018;2022-10-13T02:15:20;11.50;99.90
6988;DHT22;3534;49.960;8.018;2022-10-13T02:17:50;11.50;99.90
6988;DHT22;3534;49.960;8.018;2022-10-13T02:20:19;11.60;99.90
6988;DHT22;3534;49.960;8.018;2022-10-13T02:22:50;11.40;99.90
6988;DHT22;3534;49.960;8.018;2022-10-13T02:25:20;11.40;99.90
6988;DHT22;3534;49.960;8.018;2022-10-13T02:27:46;11.40;99.90
6988;DHT22;3534;49.960;8.018;2022-10-13T02:30:20;11.30;99.90
6988;DHT22;3534;49.960;8.018;2022-10-13T02:32:47;11.30;99.90
6988;DHT22;3534;49.960;8.018;2022-10-13T02:35:15;11.20;99.90
6988;DHT22;3534;49.960;8.018;2022-10-13T02:37:42;11.10;99.90
6988;DHT22;3534;49.960;8.018;2022-10-13T02:40:10;11.10;99.90
6988;DHT22;3534;49.960;8.018;2022-10-13T02:42:36;11.10;99.90
6988;DHT22;3534;49.960;8.018;2022-10-13T02:45:04;11.10;99.90
6988;DHT22;3534;49.960;8.018;2022-10-13T02:47:31;11.10;99.90
6988;DHT22;3534;49.960;8.018;2022-10-13T02:49:58;11.10;99.90
6988;DHT22;3534;49.960;8.018;2022-10-13T02:52:26;11.10;99.90
6988;DHT22;3534;49.960;8.018;2022-10-13T02:54:52;11.10;99.90
6988;DHT22;3534;49.960;8.018;2022-10-13T02:57:19;11.20;99.90
6988;DHT22;3534;49.960;8.018;2022-10-13T02:59:46;11.20;99.90
6988;DHT22;3534;49.960;8.018;2022-10-13T03:02:12;11.30;99.90
6988;DHT22;3534;49.960;8.018;2022-10-13T03:04:39;11.30;99.90
6988;DHT22;3534;49.960;8.018;2022-10-13T03:07:06;11.40;99.90
6988;DHT22;3534;49.960;8.018;2022-10-13T03:09:34;11.40;99.90
6988;DHT22;3534;49.960;8.018;2022-10-13T03:12:01;11.40;99.90
6988;DHT22;3534;49.960;8.018;2022-10-13T03:14:28;11.50;99.90
6988;DHT22;3534;49.960;8.018;2022-10-13T03:16:54;11.50;99.90
6988;DHT22;3534;49.960;8.018;2022-10-13T03:19:21;11.60;99.90
6988;DHT22;3534;49.960;8.018;2022-10-13T03:21:48;11.60;99.90
6988;DHT22;3534;49.960;8.018;2022-10-13T03:24:14;11.60;99.90
6988;DHT22;3534;49.960;8.018;2022-10-13T03:26:42;11.60;99.90
6988;DHT22;3534;49.960;8.018;2022-10-13T03:29:11;11.60;99.90
6988;DHT22;3534;49.960;8.018;2022-10-13T03:31:38;11.60;99.90
6988;DHT22;3534;49.960;8.018;2022-10-13T03:34:05;11.40;99.90
6988;DHT22;3534;49.960;8.018;2022-10-13T03:36:32;11.30;99.90
6988;DHT22;3534;49.960;8.018;2022-10-13T03:38:59;11.20;99.90
6988;DHT22;3534;49.960;8.018;2022-10-13T03:41:26;11.20;99.90
6988;DHT22;3534;49.960;8.018;2022-10-13T03:43:54;11.30;99.90
6988;DHT22;3534;49.960;8.018;2022-10-13T03:46:21;11.30;99.90
6988;DHT22;3534;49.960;8.018;2022-10-13T03:48:50;11.40;99.90
6988;DHT22;3534;49.960;8.018;2022-10-13T03:51:18;11.50;99.90
6988;DHT22;3534;49.960;8.018;2022-10-13T03:53:46;11.50;99.90
6988;DHT22;3534;49.960;8.018;2022-10-13T03:56:15;11.60;99.90
6988;DHT22;3534;49.960;8.018;2022-10-13T03:58:42;11.60;99.90
6988;DHT22;3534;49.960;8.018;2022-10-13T04:01:12;11.60;99.90
6988;DHT22;3534;49.960;8.018;2022-10-13T04:03:39;11.70;99.90
6988;DHT22;3534;49.960;8.018;2022-10-13T04:06:06;11.70;99.90
6988;DHT22;3534;49.960;8.018;2022-10-13T04:08:33;11.70;99.90
6988;DHT22;3534;49.960;8.018;2022-10-13T04:11:01;11.70;99.90
6988;DHT22;3534;49.960;8.018;2022-10-13T04:13:28;11.70;99.90
6988;DHT22;3534;49.960;8.018;2022-10-13T04:15:54;11.80;99.90
6988;DHT22;3534;49.960;8.018;2022-10-13T04:18:23;11.80;99.90
6988;DHT22;3534;49.960;8.018;2022-10-13T04:20:50;11.80;99.90
6988;DHT22;3534;49.960;8.018;2022-10-13T04:23:17;11.80;99.90
6988;DHT22;3534;49.960;8.018;2022-10-13T04:25:43;11.80;99.90
6988;DHT22;3534;49.960;8.018;2022-10-13T04:28:10;11.80;99.90
6988;DHT22;3534;49.960;8.018;2022-10-13T04:30:37;11.80;99.90
6988;DHT22;3534;49.960;8.018;2022-10-13T04:33:04;11.80;99.90
6988;DHT22;3534;49.960;8.018;2022-10-13T04:35:33;11.70;99.90
6988;DHT22;3534;49.960;8.018;2022-10-13T04:37:59;11.70;99.90
6988;DHT22;3534;49.960;8.018;2022-10-13T04:40:26;11.70;99.90
6988;DHT22;3534;49.960;8.018;2022-10-13T04:42:53;11.70;99.90
6988;DHT22;3534;49.960;8.018;2022-10-13T04:45:20;11.80;99.90
6988;DHT22;3534;49.960;8.018;2022-10-13T04:47:46;11.80;99.90
6988;DHT22;3534;49.960;8.018;2022-10-13T04:50:13;11.80;99.90
6988;DHT22;3534;49.960;8.018;2022-10-13T04:52:41;11.80;99.90
6988;DHT22;3534;49.960;8.018;2022-10-13T04:55:08;11.90;99.90
6988;DHT22;3534;49.960;8.018;2022-10-13T04:57:35;11.90;99.90
6988;DHT22;3534;49.960;8.018;2022-10-13T05:00:03;11.90;99.90
6988;DHT22;3534;49.960;8.018;2022-10-13T05:02:33;11.90;99.90
6988;DHT22;3534;49.960;8.018;2022-10-13T05:05:00;11.90;99.90
6988;DHT22;3534;49.960;8.018;2022-10-13T05:07:26;11.80;99.90
6988;DHT22;3534;49.960;8.018;2022-10-13T05:09:54;11.70;99.90
6988;DHT22;3534;49.960;8.018;2022-10-13T05:12:21;11.50;99.90
6988;DHT22;3534;49.960;8.018;2022-10-13T05:17:14;11.50;99.90
6988;DHT22;3534;49.960;8.018;2022-10-13T05:19:40;11.50;99.90
6988;DHT22;3534;49.960;8.018;2022-10-13T05:22:07;11.50;99.90
6988;DHT22;3534;49.960;8.018;2022-10-13T05:24:34;11.60;99.90
6988;DHT22;3534;49.960;8.018;2022-10-13T05:27:04;11.60;99.90
6988;DHT22;3534;49.960;8.018;2022-10-13T05:29:32;11.60;99.90
6988;DHT22;3534;49.960;8.018;2022-10-13T05:31:59;11.70;99.90
6988;DHT22;3534;49.960;8.018;2022-10-13T05:34:25;11.70;99.90
6988;DHT22;3534;49.960;8.018;2022-10-13T05:36:52;11.80;99.90
6988;DHT22;3534;49.960;8.018;2022-10-13T05:39:19;11.80;99.90
6988;DHT22;3534;49.960;8.018;2022-10-13T05:41:45;11.80;99.90
6988;DHT22;3534;49.960;8.018;2022-10-13T05:44:14;11.90;99.90
6988;DHT22;3534;49.960;8.018;2022-10-13T05:46:42;11.90;99.90
6988;DHT22;3534;49.960;8.018;2022-10-13T05:49:08;11.90;99.90
6988;DHT22;3534;49.960;8.018;2022-10-13T05:51:37;11.90;99.90
6988;DHT22;3534;49.960;8.018;2022-10-13T05:54:08;11.90;99.90
6988;DHT22;3534;49.960;8.018;2022-10-13T05:56:38;11.90;99.90
6988;DHT22;3534;49.960;8.018;2022-10-13T05:59:08;11.90;99.90
6988;DHT22;3534;49.960;8.018;2022-10-13T06:01:39;11.90;99.90
6988;DHT22;3534;49.960;8.018;2022-10-13T06:04:09;11.90;99.90
6988;DHT22;3534;49.960;8.018;2022-10-13T06:06:37;12.00;99.90
6988;DHT22;3534;49.960;8.018;2022-10-13T06:09:04;12.00;99.90
6988;DHT22;3534;49.960;8.018;2022-10-13T06:11:31;12.00;99.90
6988;DHT22;3534;49.960;8.018;2022-10-13T06:13:58;12.00;99.90
6988;DHT22;3534;49.960;8.018;2022-10-13T06:16:25;12.00;99.90
6988;DHT22;3534;49.960;8.018;2022-10-13T06:18:53;12.00;99.90
6988;DHT22;3534;49.960;8.018;2022-10-13T06:21:19;12.00;99.90
6988;DHT22;3534;49.960;8.018;2022-10-13T06:23:46;12.00;99.90
6988;DHT22;3534;49.960;8.018;2022-10-13T06:26:13;12.00;99.90
6988;DHT22;3534;49.960;8.018;2022-10-13T06:28:39;12.10;99.90
6988;DHT22;3534;49.960;8.018;2022-10-13T06:31:06;12.10;99.90
6988;DHT22;3534;49.960;8.018;2022-10-13T06:33:33;12.00;99.90
6988;DHT22;3534;49.960;8.018;2022-10-13T06:36:02;11.90;99.90
6988;DHT22;3534;49.960;8.018;2022-10-13T06:38:29;12.00;99.90
6988;DHT22;3534;49.960;8.018;2022-10-13T06:40:59;12.00;99.90
6988;DHT22;3534;49.960;8.018;2022-10-13T06:43:25;12.00;99.90
6988;DHT22;3534;49.960;8.018;2022-10-13T06:45:52;12.10;99.90
6988;DHT22;3534;49.960;8.018;2022-10-13T06:48:19;12.00;99.90
6988;DHT22;3534;49.960;8.018;2022-10-13T06:50:46;11.90;99.90
6988;DHT22;3534;49.960;8.018;2022-10-13T06:53:14;11.90;99.90
6988;DHT22;3534;49.960;8.018;2022-10-13T06:55:41;11.90;99.90
6988;DHT22;3534;49.960;8.018;2022-10-13T06:58:08;12.00;99.90
6988;DHT22;3534;49.960;8.018;2022-10-13T07:00:35;12.00;99.90
6988;DHT22;3534;49.960;8.018;2022-10-13T07:03:02;12.10;99.90
6988;DHT22;3534;49.960;8.018;2022-10-13T07:05:28;12.10;99.90
6988;DHT22;3534;49.960;8.018;2022-10-13T07:07:55;12.10;99.90
6988;DHT22;3534;49.960;8.018;2022-10-13T07:10:23;12.10;99.90
6988;DHT22;3534;49.960;8.018;2022-10-13T07:12:50;12.20;99.90
6988;DHT22;3534;49.960;8.018;2022-10-13T07:15:16;12.20;99.90
6988;DHT22;3534;49.960;8.018;2022-10-13T07:17:43;12.20;99.90
6988;DHT22;3534;49.960;8.018;2022-10-13T07:20:10;12.30;99.90
6988;DHT22;3534;49.960;8.018;2022-10-13T07:22:37;12.30;99.90
6988;DHT22;3534;49.960;8.018;2022-10-13T07:25:05;12.30;99.90
6988;DHT22;3534;49.960;8.018;2022-10-13T07:27:33;12.30;99.90
6988;DHT22;3534;49.960;8.018;2022-10-13T07:30:00;12.40;99.90
6988;DHT22;3534;49.960;8.018;2022-10-13T07:32:26;12.40;99.90
6988;DHT22;3534;49.960;8.018;2022-10-13T07:34:53;12.40;99.90
6988;DHT22;3534;49.960;8.018;2022-10-13T07:37:20;12.40;99.90
6988;DHT22;3534;49.960;8.018;2022-10-13T07:39:47;12.40;99.90
6988;DHT22;3534;49.960;8.018;2022-10-13T07:42:13;12.40;99.90
6988;DHT22;3534;49.960;8.018;2022-10-13T07:44:42;12.40;99.90
6988;DHT22;3534;49.960;8.018;2022-10-13T07:47:10;12.40;99.90
6988;DHT22;3534;49.960;8.018;2022-10-13T07:49:36;12.50;99.90
6988;DHT22;3534;49.960;8.018;2022-10-13T07:52:03;12.50;99.90
6988;DHT22;3534;49.960;8.018;2022-10-13T07:54:30;12.50;99.90
6988;DHT22;3534;49.960;8.018;2022-10-13T07:56:57;12.50;99.90
6988;DHT22;3534;49.960;8.018;2022-10-13T07:59:23;12.60;99.90
6988;DHT22;3534;49.960;8.018;2022-10-13T08:01:51;12.60;99.90
6988;DHT22;3534;49.960;8.018;2022-10-13T08:04:18;12.60;99.90
6988;DHT22;3534;49.960;8.018;2022-10-13T08:06:45;12.70;99.90
6988;DHT22;3534;49.960;8.018;2022-10-13T08:09:12;12.70;99.90
6988;DHT22;3534;49.960;8.018;2022-10-13T08:11:38;12.80;99.90
6988;DHT22;3534;49.960;8.018;2022-10-13T08:14:05;12.70;99.90
6988;DHT22;3534;49.960;8.018;2022-10-13T08:16:32;12.70;99.90
6988;DHT22;3534;49.960;8.018;2022-10-13T08:19:00;12.70;99.90
6988;DHT22;3534;49.960;8.018;2022-10-13T08:21:27;12.70;99.90
6988;DHT22;3534;49.960;8.018;2022-10-13T08:23:53;12.70;99.90
6988;DHT22;3534;49.960;8.018;2022-10-13T08:26:22;12.80;99.90
6988;DHT22;3534;49.960;8.018;2022-10-13T08:28:49;12.80;99.90
6988;DHT22;3534;49.960;8.018;2022-10-13T08:31:16;12.80;99.90
6988;DHT22;3534;49.960;8.018;2022-10-13T08:33:43;12.80;99.90
6988;DHT22;3534;49.960;8.018;2022-10-13T08:36:13;12.70;99.90
6988;DHT22;3534;49.960;8.018;2022-10-13T08:38:40;12.70;99.90
6988;DHT22;3534;49.960;8.018;2022-10-13T08:41:13;12.70;99.90
6988;DHT22;3534;49.960;8.018;2022-10-13T08:43:44;12.70;99.90
6988;DHT22;3534;49.960;8.018;2022-10-13T08:46:11;12.70;99.90
6988;DHT22;3534;49.960;8.018;2022-10-13T08:48:41;12.80;99.90
6988;DHT22;3534;49.960;8.018;2022-10-13T08:51:13;12.90;99.90
6988;DHT22;3534;49.960;8.018;2022-10-13T08:53:43;12.90;99.90
6988;DHT22;3534;49.960;8.018;2022-10-13T08:56:16;13.00;99.90
6988;DHT22;3534;49.960;8.018;2022-10-13T08:58:45;13.00;99.90
6988;DHT22;3534;49.960;8.018;2022-10-13T09:01:15;13.00;99.90
6988;DHT22;3534;49.960;8.018;2022-10-13T09:03:51;13.00;99.90
6988;DHT22;3534;49.960;8.018;2022-10-13T09:06:22;12.80;99.90
6988;DHT22;3534;49.960;8.018;2022-10-13T09:08:55;12.80;99.90
6988;DHT22;3534;49.960;8.018;2022-10-13T09:11:25;12.70;99.90
6988;DHT22;3534;49.960;8.018;2022-10-13T09:13:54;12.60;99.90
6988;DHT22;3534;49.960;8.018;2022-10-13T09:16:30;12.60;99.90
6988;DHT22;3534;49.960;8.018;2022-10-13T09:19:16;12.60;99.90
6988;DHT22;3534;49.960;8.018;2022-10-13T09:21:44;12.50;99.90
6988;DHT22;3534;49.960;8.018;2022-10-13T09:24:13;12.50;99.90
6988;DHT22;3534;49.960;8.018;2022-10-13T09:26:41;12.60;99.90
6988;DHT22;3534;49.960;8.018;2022-10-13T09:29:10;12.70;99.90
6988;DHT22;3534;49.960;8.018;2022-10-13T09:31:37;12.80;99.90
6988;DHT22;3534;49.960;8.018;2022-10-13T09:34:13;12.90;99.90
6988;DHT22;3534;49.960;8.018;2022-10-13T09:36:57;12.90;99.90
6988;DHT22;3534;49.960;8.018;2022-10-13T09:39:24;13.00;99.90
6988;DHT22;3534;49.960;8.018;2022-10-13T09:41:52;13.00;99.90
6988;DHT22;3534;49.960;8.018;2022-10-13T09:44:34;13.10;99.90
6988;DHT22;3534;49.960;8.018;2022-10-13T09:47:02;13.20;99.90
6988;DHT22;3534;49.960;8.018;2022-10-13T09:49:33;13.20;99.90
6988;DHT22;3534;49.960;8.018;2022-10-13T09:52:05;13.30;99.90
6988;DHT22;3534;49.960;8.018;2022-10-13T09:54:38;13.40;99.90
6988;DHT22;3534;49.960;8.018;2022-10-13T09:57:13;13.50;99.90
6988;DHT22;3534;49.960;8.018;2022-10-13T09:59:45;13.60;99.90
6988;DHT22;3534;49.960;8.018;2022-10-13T10:02:19;13.70;99.90
6988;DHT22;3534;49.960;8.018;2022-10-13T10:04:50;13.80;99.90
6988;DHT22;3534;49.960;8.018;2022-10-13T10:07:21;13.90;99.90
6988;DHT22;3534;49.960;8.018;2022-10-13T10:09:53;14.00;99.90
6988;DHT22;3534;49.960;8.018;2022-10-13T10:12:22;14.10;99.90
6988;DHT22;3534;49.960;8.018;2022-10-13T10:14:51;14.20;99.90
6988;DHT22;3534;49.960;8.018;2022-10-13T10:17:22;14.30;99.90
6988;DHT22;3534;49.960;8.018;2022-10-13T10:20:00;14.40;99.90
6988;DHT22;3534;49.960;8.018;2022-10-13T10:22:35;14.50;99.90
6988;DHT22;3534;49.960;8.018;2022-10-13T10:25:16;14.60;99.90
6988;DHT22;3534;49.960;8.018;2022-10-13T10:27:50;14.70;99.90
6988;DHT22;3534;49.960;8.018;2022-10-13T10:30:19;14.80;99.90
6988;DHT22;3534;49.960;8.018;2022-10-13T10:32:49;14.80;99.90
6988;DHT22;3534;49.960;8.018;2022-10-13T10:35:21;14.80;99.90
6988;DHT22;3534;49.960;8.018;2022-10-13T10:38:05;14.80;99.90
6988;DHT22;3534;49.960;8.018;2022-10-13T10:40:39;14.90;99.90
6988;DHT22;3534;49.960;8.018;2022-10-13T10:43:35;15.00;99.90
6988;DHT22;3534;49.960;8.018;2022-10-13T10:46:08;15.10;99.90
6988;DHT22;3534;49.960;8.018;2022-10-13T10:48:38;15.10;99.90
6988;DHT22;3534;49.960;8.018;2022-10-13T10:51:05;15.20;99.90
6988;DHT22;3534;49.960;8.018;2022-10-13T10:53:38;15.30;99.90
6988;DHT22;3534;49.960;8.018;2022-10-13T10:56:14;15.40;99.90
6988;DHT22;3534;49.960;8.018;2022-10-13T10:58:48;15.40;99.90
6988;DHT22;3534;49.960;8.018;2022-10-13T11:01:24;15.50;99.90
6988;DHT22;3534;49.960;8.018;2022-10-13T11:03:57;15.50;99.90
6988;DHT22;3534;49.960;8.018;2022-10-13T11:06:31;15.50;99.90
6988;DHT22;3534;49.960;8.018;2022-10-13T11:09:00;15.60;99.90
6988;DHT22;3534;49.960;8.018;2022-10-13T11:11:32;15.60;99.90
6988;DHT22;3534;49.960;8.018;2022-10-13T11:14:08;15.70;99.90
6988;DHT22;3534;49.960;8.018;2022-10-13T11:17:00;15.60;99.90
6988;DHT22;3534;49.960;8.018;2022-10-13T11:19:29;15.70;99.90
6988;DHT22;3534;49.960;8.018;2022-10-13T11:22:18;15.70;99.90
6988;DHT22;3534;49.960;8.018;2022-10-13T11:27:49;15.80;99.90
6988;DHT22;3534;49.960;8.018;2022-10-13T11:30:39;15.80;99.90
6988;DHT22;3534;49.960;8.018;2022-10-13T11:33:34;15.90;99.90
6988;DHT22;3534;49.960;8.018;2022-10-13T11:36:28;16.00;99.90
6988;DHT22;3534;49.960;8.018;2022-10-13T11:39:01;16.10;99.90
6988;DHT22;3534;49.960;8.018;2022-10-13T11:41:35;16.20;99.90
6988;DHT22;3534;49.960;8.018;2022-10-13T11:44:13;16.20;99.90
6988;DHT22;3534;49.960;8.018;2022-10-13T11:46:54;16.20;99.90
6988;DHT22;3534;49.960;8.018;2022-10-13T11:49:57;16.30;99.90
6988;DHT22;3534;49.960;8.018;2022-10-13T11:52:44;16.30;99.90
6988;DHT22;3534;49.960;8.018;2022-10-13T11:55:17;16.40;99.90
6988;DHT22;3534;49.960;8.018;2022-10-13T11:57:44;16.40;99.90
6988;DHT22;3534;49.960;8.018;2022-10-13T12:00:15;16.40;99.90
6988;DHT22;3534;49.960;8.018;2022-10-13T12:02:47;16.40;99.90
6988;DHT22;3534;49.960;8.018;2022-10-13T12:05:20;16.50;99.90
6988;DHT22;3534;49.960;8.018;2022-10-13T12:07:48;16.50;99.90
6988;DHT22;3534;49.960;8.018;2022-10-13T12:10:18;16.60;99.90
6988;DHT22;3534;49.960;8.018;2022-10-13T12:12:47;16.60;99.90
6988;DHT22;3534;49.960;8.018;2022-10-13T12:15:31;16.70;99.90
6988;DHT22;3534;49.960;8.018;2022-10-13T12:17:58;16.80;99.90
6988;DHT22;3534;49.960;8.018;2022-10-13T12:20:26;16.80;99.90
6988;DHT22;3534;49.960;8.018;2022-10-13T12:22:54;16.80;99.90
6988;DHT22;3534;49.960;8.018;2022-10-13T12:25:22;16.80;99.90
6988;DHT22;3534;49.960;8.018;2022-10-13T12:27:53;16.80;99.90
6988;DHT22;3534;49.960;8.018;2022-10-13T12:30:23;16.70;99.90
6988;DHT22;3534;49.960;8.018;2022-10-13T12:32:53;16.70;99.90
6988;DHT22;3534;49.960;8.018;2022-10-13T12:35:23;16.70;99.90
6988;DHT22;3534;49.960;8.018;2022-10-13T12:37:51;16.70;99.90
6988;DHT22;3534;49.960;8.018;2022-10-13T12:40:18;16.80;99.90
6988;DHT22;3534;49.960;8.018;2022-10-13T12:42:46;16.80;99.90
6988;DHT22;3534;49.960;8.018;2022-10-13T12:45:14;16.80;99.90
6988;DHT22;3534;49.960;8.018;2022-10-13T12:47:47;16.70;99.90
6988;DHT22;3534;49.960;8.018;2022-10-13T12:50:32;16.60;99.90
6988;DHT22;3534;49.960;8.018;2022-10-13T12:53:12;16.50;99.90
6988;DHT22;3534;49.960;8.018;2022-10-13T12:55:52;16.50;99.90
6988;DHT22;3534;49.960;8.018;2022-10-13T12:58:22;16.50;99.90
6988;DHT22;3534;49.960;8.018;2022-10-13T13:01:05;16.60;99.90
6988;DHT22;3534;49.960;8.018;2022-10-13T13:03:32;16.60;99.90
6988;DHT22;3534;49.960;8.018;2022-10-13T13:06:20;16.70;99.90
6988;DHT22;3534;49.960;8.018;2022-10-13T13:12:22;16.50;99.90
6988;DHT22;3534;49.960;8.018;2022-10-13T13:14:52;16.40;99.90
6988;DHT22;3534;49.960;8.018;2022-10-13T13:17:26;16.40;99.90
6988;DHT22;3534;49.960;8.018;2022-10-13T13:19:54;16.50;99.90
6988;DHT22;3534;49.960;8.018;2022-10-13T13:22:23;16.60;99.90
6988;DHT22;3534;49.960;8.018;2022-10-13T13:24:50;16.60;99.90
6988;DHT22;3534;49.960;8.018;2022-10-13T13:27:22;16.60;99.90
6988;DHT22;3534;49.960;8.018;2022-10-13T13:29:50;16.60;99.90
6988;DHT22;3534;49.960;8.018;2022-10-13T13:32:18;16.60;99.90
6988;DHT22;3534;49.960;8.018;2022-10-13T13:34:46;16.50;99.90
6988;DHT22;3534;49.960;8.018;2022-10-13T13:37:21;16.50;99.90
6988;DHT22;3534;49.960;8.018;2022-10-13T13:39:50;16.50;99.90
6988;DHT22;3534;49.960;8.018;2022-10-13T13:42:17;16.60;99.90
6988;DHT22;3534;49.960;8.018;2022-10-13T13:44:43;16.60;99.90
6988;DHT22;3534;49.960;8.018;2022-10-13T13:47:15;16.70;99.90
6988;DHT22;3534;49.960;8.018;2022-10-13T13:49:42;16.80;99.90
6988;DHT22;3534;49.960;8.018;2022-10-13T13:52:09;16.90;99.90
6988;DHT22;3534;49.960;8.018;2022-10-13T13:54:35;17.00;99.90
6988;DHT22;3534;49.960;8.018;2022-10-13T13:57:04;17.00;99.90
6988;DHT22;3534;49.960;8.018;2022-10-13T13:59:31;17.10;99.90
6988;DHT22;3534;49.960;8.018;2022-10-13T14:01:58;17.00;99.90
6988;DHT22;3534;49.960;8.018;2022-10-13T14:04:25;17.00;99.90
6988;DHT22;3534;49.960;8.018;2022-10-13T14:06:52;17.00;99.90
6988;DHT22;3534;49.960;8.018;2022-10-13T14:09:18;17.00;99.90
6988;DHT22;3534;49.960;8.018;2022-10-13T14:11:45;16.90;99.90
6988;DHT22;3534;49.960;8.018;2022-10-13T14:14:13;16.90;99.90
6988;DHT22;3534;49.960;8.018;2022-10-13T14:16:40;17.00;99.90
6988;DHT22;3534;49.960;8.018;2022-10-13T14:19:07;17.00;99.90
6988;DHT22;3534;49.960;8.018;2022-10-13T14:21:34;17.00;99.90
6988;DHT22;3534;49.960;8.018;2022-10-13T14:24:01;17.00;99.90
6988;DHT22;3534;49.960;8.018;2022-10-13T14:26:28;17.10;99.90
6988;DHT22;3534;49.960;8.018;2022-10-13T14:28:55;17.10;99.90
6988;DHT22;3534;49.960;8.018;2022-10-13T14:31:24;17.10;99.90
6988;DHT22;3534;49.960;8.018;2022-10-13T14:33:51;17.10;99.90
6988;DHT22;3534;49.960;8.018;2022-10-13T14:36:17;17.10;99.90
6988;DHT22;3534;49.960;8.018;2022-10-13T14:38:44;17.10;99.90
6988;DHT22;3534;49.960;8.018;2022-10-13T14:41:11;17.10;99.90
6988;DHT22;3534;49.960;8.018;2022-10-13T14:43:39;17.10;99.90
6988;DHT22;3534;49.960;8.018;2022-10-13T14:46:06;17.10;99.90
6988;DHT22;3534;49.960;8.018;2022-10-13T14:48:35;17.10;99.90
6988;DHT22;3534;49.960;8.018;2022-10-13T14:51:05;17.10;99.90
6988;DHT22;3534;49.960;8.018;2022-10-13T14:53:33;17.20;99.90
6988;DHT22;3534;49.960;8.018;2022-10-13T14:56:00;17.20;99.90
6988;DHT22;3534;49.960;8.018;2022-10-13T14:58:27;17.20;99.90
6988;DHT22;3534;49.960;8.018;2022-10-13T15:00:54;17.20;99.90
6988;DHT22;3534;49.960;8.018;2022-10-13T15:03:21;17.20;99.90
6988;DHT22;3534;49.960;8.018;2022-10-13T15:05:49;17.20;99.90
6988;DHT22;3534;49.960;8.018;2022-10-13T15:08:16;17.20;99.90
6988;DHT22;3534;49.960;8.018;2022-10-13T15:10:43;17.20;99.90
6988;DHT22;3534;49.960;8.018;2022-10-13T15:13:10;17.20;99.90
6988;DHT22;3534;49.960;8.018;2022-10-13T15:15:39;17.10;99.90
6988;DHT22;3534;49.960;8.018;2022-10-13T15:18:11;17.10;99.90
6988;DHT22;3534;49.960;8.018;2022-10-13T15:20:38;17.10;99.90
6988;DHT22;3534;49.960;8.018;2022-10-13T15:23:06;17.10;99.90
6988;DHT22;3534;49.960;8.018;2022-10-13T15:25:33;17.10;99.90
6988;DHT22;3534;49.960;8.018;2022-10-13T15:28:00;17.10;99.90
6988;DHT22;3534;49.960;8.018;2022-10-13T15:30:26;17.10;99.90
6988;DHT22;3534;49.960;8.018;2022-10-13T15:32:53;17.10;99.90
6988;DHT22;3534;49.960;8.018;2022-10-13T15:35:20;17.00;99.90
6988;DHT22;3534;49.960;8.018;2022-10-13T15:37:46;17.00;99.90
6988;DHT22;3534;49.960;8.018;2022-10-13T15:40:14;17.10;99.90
6988;DHT22;3534;49.960;8.018;2022-10-13T15:42:41;17.00;99.90
6988;DHT22;3534;49.960;8.018;2022-10-13T15:45:09;17.00;99.90
6988;DHT22;3534;49.960;8.018;2022-10-13T15:47:36;17.00;99.90
6988;DHT22;3534;49.960;8.018;2022-10-13T15:50:03;17.00;99.90
6988;DHT22;3534;49.960;8.018;2022-10-13T15:52:30;16.90;99.90
6988;DHT22;3534;49.960;8.018;2022-10-13T15:54:56;16.90;99.90
6988;DHT22;3534;49.960;8.018;2022-10-13T15:57:25;16.90;99.90
6988;DHT22;3534;49.960;8.018;2022-10-13T15:59:51;16.90;99.90
6988;DHT22;3534;49.960;8.018;2022-10-13T16:02:18;16.90;99.90
6988;DHT22;3534;49.960;8.018;2022-10-13T16:04:44;16.90;99.90
6988;DHT22;3534;49.960;8.018;2022-10-13T16:07:11;16.90;99.90
6988;DHT22;3534;49.960;8.018;2022-10-13T16:09:38;16.90;99.90
6988;DHT22;3534;49.960;8.018;2022-10-13T16:12:05;16.80;99.90
6988;DHT22;3534;49.960;8.018;2022-10-13T16:14:33;16.90;99.90
6988;DHT22;3534;49.960;8.018;2022-10-13T16:17:00;16.90;99.90
6988;DHT22;3534;49.960;8.018;2022-10-13T16:19:27;16.90;99.90
6988;DHT22;3534;49.960;8.018;2022-10-13T16:21:53;16.80;99.90
6988;DHT22;3534;49.960;8.018;2022-10-13T16:24:20;16.80;99.90
6988;DHT22;3534;49.960;8.018;2022-10-13T16:26:47;16.80;99.90